sensor_id;sensor_type;location;lat;lon;timestamp;P1;durP1;ratioP1;P2;durP2;ratioP2
55915;SDS011;41826;53.246;-6.670;2023-06-10T00:01:21;7.30;;;4.70;;
55915;SDS011;41826;53.246;-6.670;2023-06-10T00:03:49;6.35;;;4.40;;
55915;SDS011;41826;53.246;-6.670;2023-06-10T00:06:15;7.32;;;4.53;;
55915;SDS011;41826;53.246;-6.670;2023-06-10T00:08:40;6.53;;;4.30;;
55915;SDS011;41826;53.246;-6.670;2023-06-10T00:11:06;12.90;;;5.10;;
55915;SDS011;41826;53.246;-6.670;2023-06-10T00:13:31;6.53;;;4.68;;
55915;SDS011;41826;53.246;-6.670;2023-06-10T00:15:56;6.45;;;4.25;;
55915;SDS011;41826;53.246;-6.670;2023-06-10T00:18:22;4.15;;;3.75;;
55915;SDS011;41826;53.246;-6.670;2023-06-10T00:20:47;6.20;;;4.03;;
55915;SDS011;41826;53.246;-6.670;2023-06-10T00:23:17;8.38;;;4.70;;
55915;SDS011;41826;53.246;-6.670;2023-06-10T00:25:43;13.05;;;7.10;;
55915;SDS011;41826;53.246;-6.670;2023-06-10T00:28:08;11.07;;;4.60;;
55915;SDS011;41826;53.246;-6.670;2023-06-10T00:30:34;23.60;;;7.60;;
55915;SDS011;41826;53.246;-6.670;2023-06-10T00:32:59;13.13;;;7.80;;
55915;SDS011;41826;53.246;-6.670;2023-06-10T00:35:25;23.33;;;8.38;;
55915;SDS011;41826;53.246;-6.670;2023-06-10T00:37:50;15.75;;;8.90;;
55915;SDS011;41826;53.246;-6.670;2023-06-10T00:40:16;20.02;;;9.35;;
55915;SDS011;41826;53.246;-6.670;2023-06-10T00:42:41;13.13;;;8.52;;
55915;SDS011;41826;53.246;-6.670;2023-06-10T00:45:07;18.95;;;9.02;;
55915;SDS011;41826;53.246;-6.670;2023-06-10T00:47:32;23.40;;;9.60;;
55915;SDS011;41826;53.246;-6.670;2023-06-10T00:50:00;15.90;;;8.35;;
55915;SDS011;41826;53.246;-6.670;2023-06-10T00:52:27;20.52;;;8.90;;
55915;SDS011;41826;53.246;-6.670;2023-06-10T00:54:54;17.15;;;9.77;;
55915;SDS011;41826;53.246;-6.670;2023-06-10T00:57:20;9.73;;;6.45;;
55915;SDS011;41826;53.246;-6.670;2023-06-10T00:59:47;22.77;;;10.73;;
55915;SDS011;41826;53.246;-6.670;2023-06-10T01:02:14;12.55;;;6.35;;
55915;SDS011;41826;53.246;-6.670;2023-06-10T01:04:39;10.38;;;5.65;;
55915;SDS011;41826;53.246;-6.670;2023-06-10T01:15:03;16.17;;;6.70;;
55915;SDS011;41826;53.246;-6.670;2023-06-10T01:17:29;7.50;;;5.03;;
55915;SDS011;41826;53.246;-6.670;2023-06-10T01:19:58;21.77;;;9.05;;
55915;SDS011;41826;53.246;-6.670;2023-06-10T01:22:24;21.75;;;9.80;;
55915;SDS011;41826;53.246;-6.670;2023-06-10T01:24:53;19.02;;;10.13;;
55915;SDS011;41826;53.246;-6.670;2023-06-10T01:27:23;25.40;;;11.05;;
55915;SDS011;41826;53.246;-6.670;2023-06-10T01:30:04;19.77;;;11.00;;
55915;SDS011;41826;53.246;-6.670;2023-06-10T01:32:40;16.02;;;7.18;;
55915;SDS011;41826;53.246;-6.670;2023-06-10T01:35:10;23.13;;;10.02;;
55915;SDS011;41826;53.246;-6.670;2023-06-10T01:37:36;16.85;;;8.70;;
55915;SDS011;41826;53.246;-6.670;2023-06-10T01:40:04;7.47;;;5.00;;
55915;SDS011;41826;53.246;-6.670;2023-06-10T01:42:31;7.82;;;5.13;;
55915;SDS011;41826;53.246;-6.670;2023-06-10T01:44:57;9.10;;;5.13;;
55915;SDS011;41826;53.246;-6.670;2023-06-10T01:47:23;17.00;;;8.68;;
55915;SDS011;41826;53.246;-6.670;2023-06-10T01:49:52;6.25;;;5.00;;
55915;SDS011;41826;53.246;-6.670;2023-06-10T01:52:17;15.10;;;8.25;;
55915;SDS011;41826;53.246;-6.670;2023-06-10T01:54:43;21.33;;;10.32;;
55915;SDS011;41826;53.246;-6.670;2023-06-10T01:57:08;17.52;;;9.27;;
55915;SDS011;41826;53.246;-6.670;2023-06-10T01:59:34;25.80;;;11.98;;
55915;SDS011;41826;53.246;-6.670;2023-06-10T02:02:01;23.48;;;11.48;;
55915;SDS011;41826;53.246;-6.670;2023-06-10T02:04:27;27.30;;;12.80;;
55915;SDS011;41826;53.246;-6.670;2023-06-10T02:06:52;20.88;;;12.43;;
55915;SDS011;41826;53.246;-6.670;2023-06-10T02:09:18;22.38;;;11.20;;
55915;SDS011;41826;53.246;-6.670;2023-06-10T02:11:44;24.30;;;14.05;;
55915;SDS011;41826;53.246;-6.670;2023-06-10T02:14:09;18.15;;;11.20;;
55915;SDS011;41826;53.246;-6.670;2023-06-10T02:16:35;25.10;;;13.48;;
55915;SDS011;41826;53.246;-6.670;2023-06-10T02:19:00;33.00;;;14.00;;
55915;SDS011;41826;53.246;-6.670;2023-06-10T02:21:25;25.73;;;12.70;;
55915;SDS011;41826;53.246;-6.670;2023-06-10T02:23:51;29.02;;;13.18;;
55915;SDS011;41826;53.246;-6.670;2023-06-10T02:26:16;28.60;;;12.80;;
55915;SDS011;41826;53.246;-6.670;2023-06-10T02:28:45;32.03;;;14.98;;
55915;SDS011;41826;53.246;-6.670;2023-06-10T02:31:10;26.90;;;13.45;;
55915;SDS011;41826;53.246;-6.670;2023-06-10T02:33:36;23.88;;;13.13;;
55915;SDS011;41826;53.246;-6.670;2023-06-10T02:36:05;26.55;;;14.52;;
55915;SDS011;41826;53.246;-6.670;2023-06-10T02:38:31;25.83;;;13.63;;
55915;SDS011;41826;53.246;-6.670;2023-06-10T02:40:56;22.30;;;13.77;;
55915;SDS011;41826;53.246;-6.670;2023-06-10T02:43:22;26.50;;;13.63;;
55915;SDS011;41826;53.246;-6.670;2023-06-10T02:45:47;31.17;;;13.70;;
55915;SDS011;41826;53.246;-6.670;2023-06-10T02:48:12;34.53;;;14.80;;
55915;SDS011;41826;53.246;-6.670;2023-06-10T02:50:38;29.52;;;15.43;;
55915;SDS011;41826;53.246;-6.670;2023-06-10T02:53:05;28.40;;;15.02;;
55915;SDS011;41826;53.246;-6.670;2023-06-10T02:55:30;30.73;;;14.10;;
55915;SDS011;41826;53.246;-6.670;2023-06-10T02:57:57;28.73;;;15.13;;
55915;SDS011;41826;53.246;-6.670;2023-06-10T03:00:23;29.77;;;15.88;;
55915;SDS011;41826;53.246;-6.670;2023-06-10T03:02:48;22.23;;;15.15;;
55915;SDS011;41826;53.246;-6.670;2023-06-10T03:05:14;33.90;;;14.98;;
55915;SDS011;41826;53.246;-6.670;2023-06-10T03:07:39;28.08;;;15.93;;
55915;SDS011;41826;53.246;-6.670;2023-06-10T03:10:05;32.17;;;13.73;;
55915;SDS011;41826;53.246;-6.670;2023-06-10T03:12:31;27.13;;;15.35;;
55915;SDS011;41826;53.246;-6.670;2023-06-10T03:14:57;27.83;;;14.68;;
55915;SDS011;41826;53.246;-6.670;2023-06-10T03:17:23;36.17;;;16.88;;
55915;SDS011;41826;53.246;-6.670;2023-06-10T03:19:48;34.03;;;16.38;;
55915;SDS011;41826;53.246;-6.670;2023-06-10T03:22:17;34.03;;;16.58;;
55915;SDS011;41826;53.246;-6.670;2023-06-10T03:24:42;30.38;;;15.60;;
55915;SDS011;41826;53.246;-6.670;2023-06-10T03:27:11;27.95;;;15.50;;
55915;SDS011;41826;53.246;-6.670;2023-06-10T03:29:38;27.90;;;16.00;;
55915;SDS011;41826;53.246;-6.670;2023-06-10T03:32:04;31.80;;;16.30;;
55915;SDS011;41826;53.246;-6.670;2023-06-10T03:34:30;35.47;;;16.13;;
55915;SDS011;41826;53.246;-6.670;2023-06-10T03:36:56;38.10;;;15.05;;
55915;SDS011;41826;53.246;-6.670;2023-06-10T03:39:22;31.33;;;16.48;;
55915;SDS011;41826;53.246;-6.670;2023-06-10T03:41:48;29.08;;;16.38;;
55915;SDS011;41826;53.246;-6.670;2023-06-10T03:44:17;36.75;;;17.40;;
55915;SDS011;41826;53.246;-6.670;2023-06-10T03:46:42;31.20;;;14.50;;
55915;SDS011;41826;53.246;-6.670;2023-06-10T03:49:08;11.05;;;8.02;;
55915;SDS011;41826;53.246;-6.670;2023-06-10T03:51:36;27.88;;;13.10;;
55915;SDS011;41826;53.246;-6.670;2023-06-10T03:54:01;14.05;;;7.68;;
55915;SDS011;41826;53.246;-6.670;2023-06-10T03:56:27;29.20;;;15.68;;
55915;SDS011;41826;53.246;-6.670;2023-06-10T03:58:53;28.27;;;16.35;;
55915;SDS011;41826;53.246;-6.670;2023-06-10T04:01:20;30.05;;;14.75;;
55915;SDS011;41826;53.246;-6.670;2023-06-10T04:03:52;33.95;;;16.95;;
55915;SDS011;41826;53.246;-6.670;2023-06-10T04:06:21;35.75;;;16.23;;
55915;SDS011;41826;53.246;-6.670;2023-06-10T04:08:47;20.58;;;10.35;;
55915;SDS011;41826;53.246;-6.670;2023-06-10T04:11:13;11.65;;;6.10;;
55915;SDS011;41826;53.246;-6.670;2023-06-10T04:13:39;29.45;;;15.75;;
55915;SDS011;41826;53.246;-6.670;2023-06-10T04:16:04;8.45;;;5.85;;
55915;SDS011;41826;53.246;-6.670;2023-06-10T04:18:30;25.23;;;12.40;;
55915;SDS011;41826;53.246;-6.670;2023-06-10T04:20:55;25.70;;;15.00;;
55915;SDS011;41826;53.246;-6.670;2023-06-10T04:23:22;29.20;;;12.88;;
55915;SDS011;41826;53.246;-6.670;2023-06-10T04:25:47;29.70;;;15.63;;
55915;SDS011;41826;53.246;-6.670;2023-06-10T04:28:13;26.75;;;15.98;;
55915;SDS011;41826;53.246;-6.670;2023-06-10T04:30:38;35.45;;;16.25;;
55915;SDS011;41826;53.246;-6.670;2023-06-10T04:33:04;33.28;;;17.05;;
55915;SDS011;41826;53.246;-6.670;2023-06-10T04:35:31;31.52;;;15.98;;
55915;SDS011;41826;53.246;-6.670;2023-06-10T04:37:57;29.80;;;16.58;;
55915;SDS011;41826;53.246;-6.670;2023-06-10T04:40:22;32.65;;;17.75;;
55915;SDS011;41826;53.246;-6.670;2023-06-10T04:42:48;32.92;;;16.75;;
55915;SDS011;41826;53.246;-6.670;2023-06-10T04:45:13;35.67;;;17.65;;
55915;SDS011;41826;53.246;-6.670;2023-06-10T04:47:40;35.67;;;16.42;;
55915;SDS011;41826;53.246;-6.670;2023-06-10T04:50:05;30.67;;;15.85;;
55915;SDS011;41826;53.246;-6.670;2023-06-10T04:52:31;36.45;;;16.90;;
55915;SDS011;41826;53.246;-6.670;2023-06-10T04:54:58;31.13;;;14.88;;
55915;SDS011;41826;53.246;-6.670;2023-06-10T04:57:24;21.73;;;11.38;;
55915;SDS011;41826;53.246;-6.670;2023-06-10T04:59:49;22.17;;;14.63;;
55915;SDS011;41826;53.246;-6.670;2023-06-10T05:02:15;32.05;;;16.05;;
55915;SDS011;41826;53.246;-6.670;2023-06-10T05:04:40;36.75;;;17.13;;
55915;SDS011;41826;53.246;-6.670;2023-06-10T05:07:06;27.75;;;15.90;;
55915;SDS011;41826;53.246;-6.670;2023-06-10T05:09:31;36.58;;;15.60;;
55915;SDS011;41826;53.246;-6.670;2023-06-10T05:11:58;39.92;;;16.38;;
55915;SDS011;41826;53.246;-6.670;2023-06-10T05:14:24;35.42;;;16.77;;
55915;SDS011;41826;53.246;-6.670;2023-06-10T05:16:50;29.85;;;15.48;;
55915;SDS011;41826;53.246;-6.670;2023-06-10T05:19:15;35.13;;;16.02;;
55915;SDS011;41826;53.246;-6.670;2023-06-10T05:21:41;35.60;;;15.63;;
55915;SDS011;41826;53.246;-6.670;2023-06-10T05:24:07;31.90;;;15.40;;
55915;SDS011;41826;53.246;-6.670;2023-06-10T05:26:33;27.30;;;16.02;;
55915;SDS011;41826;53.246;-6.670;2023-06-10T05:29:02;41.88;;;16.05;;
55915;SDS011;41826;53.246;-6.670;2023-06-10T05:31:27;28.17;;;14.48;;
55915;SDS011;41826;53.246;-6.670;2023-06-10T05:33:52;30.98;;;14.82;;
55915;SDS011;41826;53.246;-6.670;2023-06-10T05:36:18;28.80;;;15.13;;
55915;SDS011;41826;53.246;-6.670;2023-06-10T05:38:43;35.53;;;14.25;;
55915;SDS011;41826;53.246;-6.670;2023-06-10T05:41:09;26.67;;;12.32;;
55915;SDS011;41826;53.246;-6.670;2023-06-10T05:43:34;26.20;;;14.75;;
55915;SDS011;41826;53.246;-6.670;2023-06-10T05:46:00;28.42;;;13.88;;
55915;SDS011;41826;53.246;-6.670;2023-06-10T05:48:25;29.98;;;12.82;;
55915;SDS011;41826;53.246;-6.670;2023-06-10T05:50:51;24.70;;;12.05;;
55915;SDS011;41826;53.246;-6.670;2023-06-10T05:53:16;23.88;;;12.85;;
55915;SDS011;41826;53.246;-6.670;2023-06-10T05:55:42;27.75;;;11.55;;
55915;SDS011;41826;53.246;-6.670;2023-06-10T05:58:08;23.45;;;12.68;;
55915;SDS011;41826;53.246;-6.670;2023-06-10T06:00:34;27.33;;;13.25;;
55915;SDS011;41826;53.246;-6.670;2023-06-10T06:03:00;22.65;;;13.55;;
55915;SDS011;41826;53.246;-6.670;2023-06-10T06:05:25;28.73;;;11.80;;
55915;SDS011;41826;53.246;-6.670;2023-06-10T06:07:51;24.13;;;12.75;;
55915;SDS011;41826;53.246;-6.670;2023-06-10T06:10:17;24.40;;;12.90;;
55915;SDS011;41826;53.246;-6.670;2023-06-10T06:12:43;28.50;;;13.40;;
55915;SDS011;41826;53.246;-6.670;2023-06-10T06:15:09;29.38;;;13.18;;
55915;SDS011;41826;53.246;-6.670;2023-06-10T06:17:35;21.08;;;10.95;;
55915;SDS011;41826;53.246;-6.670;2023-06-10T06:20:01;19.60;;;10.45;;
55915;SDS011;41826;53.246;-6.670;2023-06-10T06:22:27;25.63;;;11.70;;
55915;SDS011;41826;53.246;-6.670;2023-06-10T06:24:53;28.85;;;12.85;;
55915;SDS011;41826;53.246;-6.670;2023-06-10T06:27:18;27.45;;;11.55;;
55915;SDS011;41826;53.246;-6.670;2023-06-10T06:29:43;32.05;;;11.80;;
55915;SDS011;41826;53.246;-6.670;2023-06-10T06:32:09;22.95;;;10.63;;
55915;SDS011;41826;53.246;-6.670;2023-06-10T06:34:34;27.60;;;11.00;;
55915;SDS011;41826;53.246;-6.670;2023-06-10T06:37:00;24.10;;;9.80;;
55915;SDS011;41826;53.246;-6.670;2023-06-10T06:39:25;20.15;;;9.52;;
55915;SDS011;41826;53.246;-6.670;2023-06-10T06:41:50;25.02;;;10.38;;
55915;SDS011;41826;53.246;-6.670;2023-06-10T06:44:16;23.08;;;10.15;;
55915;SDS011;41826;53.246;-6.670;2023-06-10T06:46:41;20.58;;;10.00;;
55915;SDS011;41826;53.246;-6.670;2023-06-10T06:49:07;21.27;;;10.35;;
55915;SDS011;41826;53.246;-6.670;2023-06-10T06:51:32;22.67;;;9.45;;
55915;SDS011;41826;53.246;-6.670;2023-06-10T06:53:57;25.58;;;9.95;;
55915;SDS011;41826;53.246;-6.670;2023-06-10T06:56:24;16.70;;;8.90;;
55915;SDS011;41826;53.246;-6.670;2023-06-10T06:58:50;16.95;;;9.77;;
55915;SDS011;41826;53.246;-6.670;2023-06-10T07:01:15;23.92;;;9.73;;
55915;SDS011;41826;53.246;-6.670;2023-06-10T07:03:41;18.35;;;9.35;;
55915;SDS011;41826;53.246;-6.670;2023-06-10T07:06:06;23.58;;;10.07;;
55915;SDS011;41826;53.246;-6.670;2023-06-10T07:08:32;19.80;;;9.43;;
55915;SDS011;41826;53.246;-6.670;2023-06-10T07:10:57;23.30;;;10.23;;
55915;SDS011;41826;53.246;-6.670;2023-06-10T07:13:22;20.83;;;9.38;;
55915;SDS011;41826;53.246;-6.670;2023-06-10T07:15:48;30.65;;;10.02;;
55915;SDS011;41826;53.246;-6.670;2023-06-10T07:18:14;20.83;;;9.82;;
55915;SDS011;41826;53.246;-6.670;2023-06-10T07:20:41;19.70;;;10.13;;
55915;SDS011;41826;53.246;-6.670;2023-06-10T07:23:06;24.83;;;10.85;;
55915;SDS011;41826;53.246;-6.670;2023-06-10T07:25:32;20.55;;;10.38;;
55915;SDS011;41826;53.246;-6.670;2023-06-10T07:27:57;25.83;;;10.48;;
55915;SDS011;41826;53.246;-6.670;2023-06-10T07:30:22;21.40;;;9.48;;
55915;SDS011;41826;53.246;-6.670;2023-06-10T07:32:48;30.88;;;11.38;;
55915;SDS011;41826;53.246;-6.670;2023-06-10T07:35:13;23.92;;;10.70;;
55915;SDS011;41826;53.246;-6.670;2023-06-10T07:37:39;26.80;;;9.32;;
55915;SDS011;41826;53.246;-6.670;2023-06-10T07:40:05;23.13;;;10.93;;
55915;SDS011;41826;53.246;-6.670;2023-06-10T07:42:34;30.63;;;10.63;;
55915;SDS011;41826;53.246;-6.670;2023-06-10T07:45:01;23.80;;;10.57;;
55915;SDS011;41826;53.246;-6.670;2023-06-10T07:47:27;28.63;;;11.10;;
55915;SDS011;41826;53.246;-6.670;2023-06-10T07:49:52;22.80;;;8.98;;
55915;SDS011;41826;53.246;-6.670;2023-06-10T07:52:18;28.92;;;11.20;;
55915;SDS011;41826;53.246;-6.670;2023-06-10T07:54:43;17.08;;;9.75;;
55915;SDS011;41826;53.246;-6.670;2023-06-10T07:57:08;20.17;;;10.40;;
55915;SDS011;41826;53.246;-6.670;2023-06-10T07:59:34;25.38;;;10.02;;
55915;SDS011;41826;53.246;-6.670;2023-06-10T08:02:00;17.98;;;11.07;;
55915;SDS011;41826;53.246;-6.670;2023-06-10T08:04:25;23.25;;;10.13;;
55915;SDS011;41826;53.246;-6.670;2023-06-10T08:06:51;21.83;;;9.52;;
55915;SDS011;41826;53.246;-6.670;2023-06-10T08:09:16;21.65;;;10.50;;
55915;SDS011;41826;53.246;-6.670;2023-06-10T08:11:43;23.52;;;9.35;;
55915;SDS011;41826;53.246;-6.670;2023-06-10T08:14:09;21.98;;;9.48;;
55915;SDS011;41826;53.246;-6.670;2023-06-10T08:16:34;25.60;;;9.35;;
55915;SDS011;41826;53.246;-6.670;2023-06-10T08:18:59;21.13;;;10.32;;
55915;SDS011;41826;53.246;-6.670;2023-06-10T08:21:25;26.70;;;9.93;;
55915;SDS011;41826;53.246;-6.670;2023-06-10T08:23:52;27.90;;;10.48;;
55915;SDS011;41826;53.246;-6.670;2023-06-10T08:26:22;26.63;;;10.52;;
55915;SDS011;41826;53.246;-6.670;2023-06-10T08:28:47;21.98;;;9.95;;
55915;SDS011;41826;53.246;-6.670;2023-06-10T08:31:13;20.17;;;8.40;;
55915;SDS011;41826;53.246;-6.670;2023-06-10T08:33:38;20.30;;;9.60;;
55915;SDS011;41826;53.246;-6.670;2023-06-10T08:36:04;27.45;;;9.65;;
55915;SDS011;41826;53.246;-6.670;2023-06-10T08:38:29;19.63;;;9.20;;
55915;SDS011;41826;53.246;-6.670;2023-06-10T08:40:59;24.48;;;10.13;;
55915;SDS011;41826;53.246;-6.670;2023-06-10T08:43:45;32.70;;;10.45;;
55915;SDS011;41826;53.246;-6.670;2023-06-10T08:46:16;29.50;;;10.90;;
55915;SDS011;41826;53.246;-6.670;2023-06-10T08:48:42;21.80;;;9.38;;
55915;SDS011;41826;53.246;-6.670;2023-06-10T08:51:09;28.98;;;10.88;;
55915;SDS011;41826;53.246;-6.670;2023-06-10T08:53:36;24.98;;;10.45;;
55915;SDS011;41826;53.246;-6.670;2023-06-10T08:56:06;23.38;;;9.35;;
55915;SDS011;41826;53.246;-6.670;2023-06-10T08:58:32;23.98;;;10.38;;
55915;SDS011;41826;53.246;-6.670;2023-06-10T09:01:06;22.27;;;9.65;;
55915;SDS011;41826;53.246;-6.670;2023-06-10T09:03:34;19.05;;;10.35;;
55915;SDS011;41826;53.246;-6.670;2023-06-10T09:06:03;23.98;;;11.05;;
55915;SDS011;41826;53.246;-6.670;2023-06-10T09:08:30;29.77;;;11.32;;
55915;SDS011;41826;53.246;-6.670;2023-06-10T09:10:56;23.85;;;11.65;;
55915;SDS011;41826;53.246;-6.670;2023-06-10T09:13:22;28.38;;;11.02;;
55915;SDS011;41826;53.246;-6.670;2023-06-10T09:15:48;30.50;;;10.55;;
55915;SDS011;41826;53.246;-6.670;2023-06-10T09:18:16;22.02;;;10.35;;
55915;SDS011;41826;53.246;-6.670;2023-06-10T09:20:42;27.27;;;11.30;;
55915;SDS011;41826;53.246;-6.670;2023-06-10T09:23:08;22.02;;;10.50;;
55915;SDS011;41826;53.246;-6.670;2023-06-10T09:25:35;31.35;;;11.38;;
55915;SDS011;41826;53.246;-6.670;2023-06-10T09:28:02;20.45;;;10.40;;
55915;SDS011;41826;53.246;-6.670;2023-06-10T09:30:34;31.42;;;11.27;;
55915;SDS011;41826;53.246;-6.670;2023-06-10T09:33:01;28.47;;;11.80;;
55915;SDS011;41826;53.246;-6.670;2023-06-10T09:35:28;25.17;;;12.23;;
55915;SDS011;41826;53.246;-6.670;2023-06-10T09:37:58;33.08;;;12.18;;
55915;SDS011;41826;53.246;-6.670;2023-06-10T09:40:25;24.60;;;10.93;;
55915;SDS011;41826;53.246;-6.670;2023-06-10T09:42:55;32.30;;;12.82;;
55915;SDS011;41826;53.246;-6.670;2023-06-10T09:45:31;23.23;;;13.13;;
55915;SDS011;41826;53.246;-6.670;2023-06-10T09:47:57;41.72;;;16.88;;
55915;SDS011;41826;53.246;-6.670;2023-06-10T09:50:23;44.42;;;18.10;;
55915;SDS011;41826;53.246;-6.670;2023-06-10T09:52:48;35.53;;;17.95;;
55915;SDS011;41826;53.246;-6.670;2023-06-10T09:55:16;34.17;;;15.13;;
55915;SDS011;41826;53.246;-6.670;2023-06-10T09:57:42;31.90;;;15.18;;
55915;SDS011;41826;53.246;-6.670;2023-06-10T10:00:12;31.23;;;16.45;;
55915;SDS011;41826;53.246;-6.670;2023-06-10T10:02:48;29.67;;;15.13;;
55915;SDS011;41826;53.246;-6.670;2023-06-10T10:05:15;25.85;;;15.23;;
55915;SDS011;41826;53.246;-6.670;2023-06-10T10:07:43;30.75;;;15.32;;
55915;SDS011;41826;53.246;-6.670;2023-06-10T10:10:09;33.75;;;13.38;;
55915;SDS011;41826;53.246;-6.670;2023-06-10T10:12:36;26.90;;;12.93;;
55915;SDS011;41826;53.246;-6.670;2023-06-10T10:15:03;29.63;;;12.10;;
55915;SDS011;41826;53.246;-6.670;2023-06-10T10:17:33;28.35;;;13.43;;
55915;SDS011;41826;53.246;-6.670;2023-06-10T10:20:03;32.20;;;13.70;;
55915;SDS011;41826;53.246;-6.670;2023-06-10T10:22:33;29.27;;;12.38;;
55915;SDS011;41826;53.246;-6.670;2023-06-10T10:25:02;30.20;;;14.05;;
55915;SDS011;41826;53.246;-6.670;2023-06-10T10:27:51;31.48;;;14.18;;
55915;SDS011;41826;53.246;-6.670;2023-06-10T10:30:20;32.13;;;13.23;;
55915;SDS011;41826;53.246;-6.670;2023-06-10T10:32:54;30.48;;;13.27;;
55915;SDS011;41826;53.246;-6.670;2023-06-10T10:35:23;35.17;;;14.05;;
55915;SDS011;41826;53.246;-6.670;2023-06-10T10:37:53;31.23;;;10.68;;
55915;SDS011;41826;53.246;-6.670;2023-06-10T10:40:23;32.15;;;14.57;;
55915;SDS011;41826;53.246;-6.670;2023-06-10T10:42:50;36.58;;;13.38;;
55915;SDS011;41826;53.246;-6.670;2023-06-10T10:45:16;32.28;;;14.95;;
55915;SDS011;41826;53.246;-6.670;2023-06-10T10:47:42;37.67;;;14.90;;
55915;SDS011;41826;53.246;-6.670;2023-06-10T10:50:16;36.95;;;14.80;;
55915;SDS011;41826;53.246;-6.670;2023-06-10T10:52:48;29.17;;;13.70;;
55915;SDS011;41826;53.246;-6.670;2023-06-10T10:55:16;32.80;;;14.30;;
55915;SDS011;41826;53.246;-6.670;2023-06-10T10:57:41;30.42;;;14.18;;
55915;SDS011;41826;53.246;-6.670;2023-06-10T11:00:06;31.95;;;13.70;;
55915;SDS011;41826;53.246;-6.670;2023-06-10T11:05:07;28.92;;;15.55;;
55915;SDS011;41826;53.246;-6.670;2023-06-10T11:07:33;26.58;;;13.60;;
55915;SDS011;41826;53.246;-6.670;2023-06-10T11:12:58;36.72;;;14.43;;
55915;SDS011;41826;53.246;-6.670;2023-06-10T11:15:24;32.83;;;14.32;;
55915;SDS011;41826;53.246;-6.670;2023-06-10T11:18:10;28.15;;;13.45;;
55915;SDS011;41826;53.246;-6.670;2023-06-10T11:33:58;29.45;;;13.52;;
55915;SDS011;41826;53.246;-6.670;2023-06-10T11:36:26;25.42;;;13.07;;
55915;SDS011;41826;53.246;-6.670;2023-06-10T11:38:56;29.70;;;13.50;;
55915;SDS011;41826;53.246;-6.670;2023-06-10T11:41:23;26.02;;;11.75;;
55915;SDS011;41826;53.246;-6.670;2023-06-10T11:43:52;30.73;;;12.38;;
55915;SDS011;41826;53.246;-6.670;2023-06-10T11:46:20;29.35;;;12.50;;
55915;SDS011;41826;53.246;-6.670;2023-06-10T11:48:51;27.35;;;12.52;;
55915;SDS011;41826;53.246;-6.670;2023-06-10T11:51:17;31.67;;;13.30;;
55915;SDS011;41826;53.246;-6.670;2023-06-10T11:53:46;30.90;;;13.70;;
55915;SDS011;41826;53.246;-6.670;2023-06-10T11:56:12;28.63;;;12.43;;
55915;SDS011;41826;53.246;-6.670;2023-06-10T11:58:38;27.85;;;13.68;;
55915;SDS011;41826;53.246;-6.670;2023-06-10T12:01:10;31.50;;;11.80;;
55915;SDS011;41826;53.246;-6.670;2023-06-10T12:03:38;26.05;;;12.68;;
55915;SDS011;41826;53.246;-6.670;2023-06-10T12:06:05;29.83;;;11.90;;
55915;SDS011;41826;53.246;-6.670;2023-06-10T12:08:32;24.65;;;12.10;;
55915;SDS011;41826;53.246;-6.670;2023-06-10T12:10:58;22.63;;;11.23;;
55915;SDS011;41826;53.246;-6.670;2023-06-10T12:13:27;25.77;;;12.23;;
55915;SDS011;41826;53.246;-6.670;2023-06-10T12:15:52;20.80;;;11.48;;
55915;SDS011;41826;53.246;-6.670;2023-06-10T12:18:19;18.75;;;12.05;;
55915;SDS011;41826;53.246;-6.670;2023-06-10T12:20:48;24.27;;;12.15;;
55915;SDS011;41826;53.246;-6.670;2023-06-10T12:23:14;26.27;;;11.77;;
55915;SDS011;41826;53.246;-6.670;2023-06-10T12:25:49;23.02;;;12.05;;
55915;SDS011;41826;53.246;-6.670;2023-06-10T12:28:24;24.70;;;11.10;;
55915;SDS011;41826;53.246;-6.670;2023-06-10T12:30:51;20.02;;;11.13;;
55915;SDS011;41826;53.246;-6.670;2023-06-10T12:33:30;19.42;;;10.93;;
55915;SDS011;41826;53.246;-6.670;2023-06-10T12:35:56;25.55;;;12.27;;
55915;SDS011;41826;53.246;-6.670;2023-06-10T12:38:22;20.42;;;11.25;;
55915;SDS011;41826;53.246;-6.670;2023-06-10T12:40:52;29.13;;;12.18;;
55915;SDS011;41826;53.246;-6.670;2023-06-10T12:43:20;29.10;;;13.13;;
55915;SDS011;41826;53.246;-6.670;2023-06-10T12:45:47;24.45;;;12.07;;
55915;SDS011;41826;53.246;-6.670;2023-06-10T12:48:22;27.25;;;12.32;;
55915;SDS011;41826;53.246;-6.670;2023-06-10T12:50:56;21.17;;;10.82;;
55915;SDS011;41826;53.246;-6.670;2023-06-10T12:53:22;28.13;;;13.05;;
55915;SDS011;41826;53.246;-6.670;2023-06-10T12:55:52;23.85;;;11.63;;
55915;SDS011;41826;53.246;-6.670;2023-06-10T12:58:19;19.67;;;11.98;;
55915;SDS011;41826;53.246;-6.670;2023-06-10T13:00:48;21.60;;;11.70;;
55915;SDS011;41826;53.246;-6.670;2023-06-10T13:03:17;24.88;;;12.05;;
55915;SDS011;41826;53.246;-6.670;2023-06-10T13:05:43;33.67;;;12.73;;
55915;SDS011;41826;53.246;-6.670;2023-06-10T13:08:08;21.20;;;11.95;;
55915;SDS011;41826;53.246;-6.670;2023-06-10T13:10:36;22.77;;;11.82;;
55915;SDS011;41826;53.246;-6.670;2023-06-10T13:13:02;23.15;;;11.70;;
55915;SDS011;41826;53.246;-6.670;2023-06-10T13:15:31;26.95;;;12.18;;
55915;SDS011;41826;53.246;-6.670;2023-06-10T13:17:57;29.63;;;12.43;;
55915;SDS011;41826;53.246;-6.670;2023-06-10T13:20:23;23.65;;;11.85;;
55915;SDS011;41826;53.246;-6.670;2023-06-10T13:22:49;27.60;;;11.68;;
55915;SDS011;41826;53.246;-6.670;2023-06-10T13:25:14;17.92;;;11.77;;
55915;SDS011;41826;53.246;-6.670;2023-06-10T13:27:40;20.35;;;12.40;;
55915;SDS011;41826;53.246;-6.670;2023-06-10T13:30:07;23.48;;;11.95;;
55915;SDS011;41826;53.246;-6.670;2023-06-10T13:32:34;32.00;;;13.07;;
55915;SDS011;41826;53.246;-6.670;2023-06-10T13:35:00;27.05;;;13.15;;
55915;SDS011;41826;53.246;-6.670;2023-06-10T13:37:26;27.92;;;11.52;;
55915;SDS011;41826;53.246;-6.670;2023-06-10T13:39:51;32.78;;;13.30;;
55915;SDS011;41826;53.246;-6.670;2023-06-10T13:42:17;27.63;;;12.88;;
55915;SDS011;41826;53.246;-6.670;2023-06-10T13:44:43;23.50;;;12.70;;
55915;SDS011;41826;53.246;-6.670;2023-06-10T13:47:09;31.80;;;12.48;;
55915;SDS011;41826;53.246;-6.670;2023-06-10T13:49:35;25.17;;;12.55;;
55915;SDS011;41826;53.246;-6.670;2023-06-10T13:52:01;28.25;;;13.40;;
55915;SDS011;41826;53.246;-6.670;2023-06-10T13:54:27;26.30;;;13.05;;
55915;SDS011;41826;53.246;-6.670;2023-06-10T13:56:52;27.05;;;13.05;;
55915;SDS011;41826;53.246;-6.670;2023-06-10T13:59:18;23.63;;;12.80;;
55915;SDS011;41826;53.246;-6.670;2023-06-10T14:01:44;27.13;;;13.80;;
55915;SDS011;41826;53.246;-6.670;2023-06-10T14:04:10;24.20;;;12.60;;
55915;SDS011;41826;53.246;-6.670;2023-06-10T14:06:35;27.50;;;13.50;;
55915;SDS011;41826;53.246;-6.670;2023-06-10T14:09:01;30.23;;;14.10;;
55915;SDS011;41826;53.246;-6.670;2023-06-10T14:11:26;26.33;;;14.02;;
55915;SDS011;41826;53.246;-6.670;2023-06-10T14:13:51;24.92;;;14.95;;
55915;SDS011;41826;53.246;-6.670;2023-06-10T14:16:17;29.25;;;15.10;;
55915;SDS011;41826;53.246;-6.670;2023-06-10T14:18:43;40.22;;;16.17;;
55915;SDS011;41826;53.246;-6.670;2023-06-10T14:21:08;31.48;;;15.88;;
55915;SDS011;41826;53.246;-6.670;2023-06-10T14:23:33;28.15;;;14.60;;
55915;SDS011;41826;53.246;-6.670;2023-06-10T14:25:59;38.60;;;16.63;;
55915;SDS011;41826;53.246;-6.670;2023-06-10T14:28:24;34.28;;;16.00;;
55915;SDS011;41826;53.246;-6.670;2023-06-10T14:30:51;34.05;;;16.75;;
55915;SDS011;41826;53.246;-6.670;2023-06-10T14:33:17;25.65;;;14.60;;
55915;SDS011;41826;53.246;-6.670;2023-06-10T14:35:43;26.48;;;14.75;;